createdAt,value
2023-04-24T00:01:56.125Z,2.60
2023-04-24T00:04:22.962Z,3.03
2023-04-24T00:06:54.824Z,6.30
2023-04-24T00:09:21.476Z,5.07
2023-04-24T00:11:47.962Z,7.50
2023-04-24T00:14:14.741Z,6.60
2023-04-24T00:16:41.302Z,4.80
2023-04-24T00:19:08.021Z,6.33
2023-04-24T00:21:34.731Z,3.87
2023-04-24T00:24:01.295Z,6.27
2023-04-24T00:26:27.929Z,2.60
2023-04-24T00:28:54.694Z,2.63
2023-04-24T00:31:21.218Z,1.93
2023-04-24T00:33:48.065Z,2.27
2023-04-24T00:36:14.604Z,1.40
2023-04-24T00:38:41.461Z,1.30
2023-04-24T00:41:08.253Z,0.90
2023-04-24T00:43:35.381Z,1.30
2023-04-24T00:46:02.773Z,1.00
2023-04-24T00:48:29.417Z,1.17
2023-04-24T00:50:56.234Z,0.90
2023-04-24T00:53:22.887Z,1.20
2023-04-24T00:55:49.643Z,1.20
2023-04-24T00:58:16.179Z,1.20
2023-04-24T01:00:43.010Z,1.20
2023-04-24T01:03:09.705Z,1.30
2023-04-24T01:05:36.522Z,1.63
2023-04-24T01:08:03.988Z,1.20
2023-04-24T01:10:32.867Z,1.60
2023-04-24T01:13:00.599Z,1.80
2023-04-24T01:15:27.305Z,2.00
2023-04-24T01:17:53.869Z,1.50
2023-04-24T01:20:21.967Z,2.07
2023-04-24T01:22:48.942Z,2.00
2023-04-24T01:25:15.708Z,2.27
2023-04-24T01:27:42.252Z,2.83
2023-04-24T01:30:09.654Z,2.27
2023-04-24T01:32:36.657Z,1.87
2023-04-24T01:35:04.368Z,1.50
2023-04-24T01:37:32.551Z,1.73
2023-04-24T01:39:59.237Z,1.70
2023-04-24T01:42:26.229Z,2.20
2023-04-24T01:44:52.750Z,1.20
2023-04-24T01:47:19.310Z,1.70
2023-04-24T01:49:46.438Z,1.50
2023-04-24T01:52:12.950Z,1.70
2023-04-24T01:54:39.524Z,1.70
2023-04-24T01:57:06.527Z,1.37
2023-04-24T01:59:34.307Z,1.80
2023-04-24T02:02:01.077Z,1.80
2023-04-24T02:04:27.603Z,1.80
2023-04-24T02:06:54.549Z,1.50
2023-04-24T02:09:21.120Z,1.40
2023-04-24T02:11:47.808Z,1.47
2023-04-24T02:14:14.275Z,1.90
2023-04-24T02:16:41.038Z,1.80
2023-04-24T02:19:07.745Z,1.60
2023-04-24T02:21:34.358Z,1.50
2023-04-24T02:24:01.001Z,1.93
2023-04-24T02:26:27.580Z,1.90
2023-04-24T02:28:54.172Z,2.07
2023-04-24T02:31:20.833Z,2.40
2023-04-24T02:33:47.290Z,2.10
2023-04-24T02:36:14.284Z,1.80
2023-04-24T02:38:40.908Z,2.30
2023-04-24T02:41:07.752Z,2.10
2023-04-24T02:43:34.573Z,2.80
2023-04-24T02:46:01.107Z,2.97
2023-04-24T02:48:27.989Z,2.40
2023-04-24T02:50:54.556Z,2.60
2023-04-24T02:53:21.072Z,2.07
2023-04-24T02:55:47.608Z,2.20
2023-04-24T02:58:14.123Z,2.67
2023-04-24T03:00:40.842Z,2.43
2023-04-24T03:03:08.025Z,2.50
2023-04-24T03:05:34.844Z,2.37
2023-04-24T03:08:01.308Z,1.93
2023-04-24T03:10:27.756Z,2.33
2023-04-24T03:12:55.914Z,2.70
2023-04-24T03:15:22.805Z,2.00
2023-04-24T03:17:49.313Z,2.50
2023-04-24T03:20:16.511Z,2.80
2023-04-24T03:22:43.002Z,3.00
2023-04-24T03:25:10.504Z,3.83
2023-04-24T03:27:37.136Z,3.87
2023-04-24T03:30:04.394Z,5.17
2023-04-24T03:32:31.324Z,4.00
2023-04-24T03:34:58.073Z,5.43
2023-04-24T03:37:24.629Z,5.90
2023-04-24T03:39:51.416Z,7.40
2023-04-24T03:42:17.854Z,7.77
2023-04-24T03:44:44.320Z,8.17
2023-04-24T03:47:10.804Z,7.07
2023-04-24T03:49:37.715Z,8.50
2023-04-24T03:52:04.237Z,9.20
2023-04-24T03:54:30.721Z,7.80
2023-04-24T03:56:57.366Z,8.17
2023-04-24T03:59:23.922Z,8.23
2023-04-24T04:01:50.627Z,9.67
2023-04-24T04:04:17.321Z,8.40
2023-04-24T04:06:45.095Z,8.20
2023-04-24T04:09:11.831Z,8.50
2023-04-24T04:11:38.374Z,10.07
2023-04-24T04:14:05.161Z,9.40
2023-04-24T04:16:31.953Z,9.97
2023-04-24T04:18:58.430Z,8.80
2023-04-24T04:21:25.114Z,10.90
2023-04-24T04:23:51.923Z,11.27
2023-04-24T04:26:20.142Z,10.93
2023-04-24T04:28:46.619Z,11.43
2023-04-24T04:31:13.854Z,12.10
2023-04-24T04:33:40.722Z,14.57
2023-04-24T04:36:07.348Z,14.03
2023-04-24T04:38:34.696Z,13.00
2023-04-24T04:41:01.595Z,15.67
2023-04-24T04:43:28.272Z,14.00
2023-04-24T04:45:55.907Z,13.00
2023-04-24T04:48:23.223Z,13.43
2023-04-24T04:50:49.738Z,14.10
2023-04-24T04:53:16.603Z,13.40
2023-04-24T04:55:43.152Z,12.03
2023-04-24T04:58:09.797Z,13.40
2023-04-24T05:00:38.491Z,12.53
2023-04-24T05:03:19.334Z,11.57
2023-04-24T05:05:47.474Z,12.07
2023-04-24T05:08:25.732Z,12.10
2023-04-24T05:10:53.546Z,12.67
2023-04-24T05:13:28.423Z,12.57
2023-04-24T05:16:02.787Z,13.47
2023-04-24T05:18:29.343Z,13.03
2023-04-24T05:20:56.583Z,13.73
2023-04-24T05:23:23.122Z,13.80
2023-04-24T05:25:49.773Z,13.13
2023-04-24T05:28:16.399Z,13.23
2023-04-24T05:30:42.933Z,13.93
2023-04-24T05:33:10.033Z,13.03
2023-04-24T05:35:36.585Z,13.30
2023-04-24T05:38:03.243Z,14.10
2023-04-24T05:40:29.765Z,13.40
2023-04-24T05:42:56.331Z,14.83
2023-04-24T05:45:22.828Z,14.90
2023-04-24T05:47:49.329Z,14.00
2023-04-24T05:50:16.183Z,12.30
2023-04-24T05:52:42.777Z,12.00
2023-04-24T05:55:09.542Z,11.60
2023-04-24T05:57:36.129Z,10.60
2023-04-24T06:00:02.944Z,11.27
2023-04-24T06:02:33.290Z,11.03
2023-04-24T06:05:00.773Z,9.80
2023-04-24T06:07:27.525Z,9.93
2023-04-24T06:09:54.056Z,9.93
2023-04-24T06:12:20.625Z,10.30
2023-04-24T06:14:47.171Z,8.17
2023-04-24T06:17:13.689Z,8.27
2023-04-24T06:19:40.246Z,7.90
2023-04-24T06:22:08.479Z,7.50
2023-04-24T06:24:36.465Z,7.63
2023-04-24T06:27:03.047Z,8.93
2023-04-24T06:29:29.634Z,8.20
2023-04-24T06:31:56.135Z,9.40
2023-04-24T06:34:22.740Z,8.90
2023-04-24T06:36:49.315Z,9.40
2023-04-24T06:39:15.803Z,9.37
2023-04-24T06:41:42.248Z,9.07
2023-04-24T06:44:08.719Z,9.60
2023-04-24T06:46:35.477Z,8.30
2023-04-24T06:49:02.081Z,8.43
2023-04-24T06:51:28.798Z,9.00
2023-04-24T06:53:57.013Z,7.83
2023-04-24T06:56:23.603Z,7.70
2023-04-24T06:58:50.176Z,7.53
2023-04-24T07:01:16.721Z,7.47
2023-04-24T07:03:43.483Z,7.07
2023-04-24T07:06:11.224Z,5.77
2023-04-24T07:08:38.126Z,5.80
2023-04-24T07:11:05.102Z,7.73
2023-04-24T07:13:31.586Z,9.10
2023-04-24T07:15:58.244Z,7.63
2023-04-24T07:18:24.981Z,5.33
2023-04-24T07:20:51.828Z,6.00
2023-04-24T07:23:19.066Z,4.63
2023-04-24T07:25:45.604Z,5.27
2023-04-24T07:28:12.125Z,5.47
2023-04-24T07:30:38.655Z,5.03
2023-04-24T07:33:05.419Z,5.17
2023-04-24T07:35:31.959Z,5.43
2023-04-24T07:37:58.671Z,4.33
2023-04-24T07:40:25.389Z,5.60
2023-04-24T07:42:52.269Z,4.50
2023-04-24T07:45:18.838Z,4.90
2023-04-24T07:47:46.676Z,4.73
2023-04-24T07:50:13.999Z,4.07
2023-04-24T07:52:40.776Z,4.00
2023-04-24T07:55:08.073Z,3.87
2023-04-24T07:57:35.016Z,3.87
2023-04-24T08:00:01.610Z,4.70
2023-04-24T08:02:28.607Z,4.33
2023-04-24T08:04:55.737Z,4.40
2023-04-24T08:07:22.941Z,3.97
2023-04-24T08:09:49.486Z,4.27
2023-04-24T08:12:16.040Z,4.10
2023-04-24T08:14:42.797Z,4.90
2023-04-24T08:17:09.670Z,3.67
2023-04-24T08:19:36.222Z,3.60
2023-04-24T08:22:03.568Z,3.47
2023-04-24T08:24:30.088Z,2.90
2023-04-24T08:26:58.861Z,3.60
2023-04-24T08:29:25.822Z,2.90
2023-04-24T08:31:52.578Z,3.23
2023-04-24T08:34:19.060Z,2.80
2023-04-24T08:36:47.422Z,3.20
2023-04-24T08:39:15.260Z,3.17
2023-04-24T08:41:44.141Z,4.13
2023-04-24T08:44:11.142Z,3.17
2023-04-24T08:46:38.247Z,3.20
2023-04-24T08:49:04.987Z,3.03
2023-04-24T08:51:32.187Z,2.53
2023-04-24T08:53:59.148Z,1.60
2023-04-24T08:56:25.824Z,1.60
2023-04-24T08:58:52.809Z,1.00
2023-04-24T09:01:21.011Z,0.73
2023-04-24T09:03:50.098Z,0.80
2023-04-24T09:06:18.917Z,0.90
2023-04-24T09:08:46.466Z,0.70
2023-04-24T09:11:13.178Z,0.70
2023-04-24T09:13:39.933Z,0.90
2023-04-24T09:16:06.489Z,0.90
2023-04-24T09:18:33.736Z,1.13
2023-04-24T09:21:05.132Z,0.80
2023-04-24T09:23:32.472Z,0.90
2023-04-24T09:26:10.912Z,0.83
2023-04-24T09:28:39.516Z,0.90
2023-04-24T09:31:19.274Z,0.73
2023-04-24T09:34:02.295Z,0.90
2023-04-24T09:36:39.776Z,0.97
2023-04-24T09:39:17.321Z,0.80
2023-04-24T09:41:51.052Z,0.87
2023-04-24T09:44:18.839Z,0.87
2023-04-24T09:46:47.019Z,1.07
2023-04-24T09:49:15.969Z,1.00
2023-04-24T09:51:43.052Z,1.20
2023-04-24T09:54:23.509Z,1.10
2023-04-24T09:56:51.421Z,1.50
2023-04-24T09:59:19.781Z,1.83
2023-04-24T10:01:46.933Z,1.93
2023-04-24T10:04:20.801Z,2.10
2023-04-24T10:06:49.927Z,2.80
2023-04-24T10:09:21.117Z,3.03
2023-04-24T10:11:49.530Z,3.20
2023-04-24T10:14:18.176Z,3.27
2023-04-24T10:16:47.708Z,4.30
2023-04-24T10:19:19.520Z,4.00
2023-04-24T10:21:47.962Z,3.40
2023-04-24T10:24:16.639Z,4.50
2023-04-24T10:26:44.123Z,5.10
2023-04-24T10:29:13.585Z,4.53
2023-04-24T10:31:41.545Z,4.00
2023-04-24T10:34:09.730Z,3.67
2023-04-24T10:36:39.133Z,3.10
2023-04-24T10:39:09.698Z,2.70
2023-04-24T10:41:38.345Z,2.83
2023-04-24T10:44:09.303Z,2.30
2023-04-24T10:46:36.079Z,3.20
2023-04-24T10:49:09.816Z,2.67
2023-04-24T10:51:54.249Z,2.80
2023-04-24T10:54:28.809Z,3.30
2023-04-24T10:57:21.639Z,2.73
2023-04-24T10:59:54.130Z,2.70
2023-04-24T11:02:37.214Z,3.10
2023-04-24T11:05:07.340Z,3.10
2023-04-24T11:08:14.682Z,3.80
2023-04-24T11:10:44.732Z,3.50
2023-04-24T11:13:12.771Z,3.50
2023-04-24T11:15:43.296Z,3.20
2023-04-24T11:18:17.328Z,3.73
2023-04-24T11:20:45.170Z,4.30
2023-04-24T11:23:13.548Z,4.47
2023-04-24T11:25:40.021Z,4.73
2023-04-24T11:28:07.158Z,4.73
2023-04-24T11:30:37.263Z,5.70
2023-04-24T11:33:05.497Z,5.83
2023-04-24T11:35:38.290Z,5.53
2023-04-24T11:40:35.817Z,6.50
2023-04-24T11:43:02.471Z,6.67
2023-04-24T11:45:30.851Z,6.70
2023-04-24T11:47:58.348Z,7.37
2023-04-24T11:50:30.359Z,7.00
2023-04-24T11:52:57.118Z,6.67
2023-04-24T11:55:24.513Z,7.07
2023-04-24T11:57:53.888Z,7.30
2023-04-24T12:00:25.932Z,6.87
2023-04-24T12:02:52.984Z,7.57
2023-04-24T12:05:28.940Z,7.70
2023-04-24T12:07:55.597Z,7.97
2023-04-24T12:10:23.741Z,9.03
2023-04-24T12:12:52.270Z,7.70
2023-04-24T12:15:21.119Z,7.93
2023-04-24T12:17:48.279Z,9.00
2023-04-24T12:20:15.630Z,7.93
2023-04-24T12:22:54.524Z,8.83
2023-04-24T12:25:26.000Z,8.87
2023-04-24T12:28:04.781Z,8.57
2023-04-24T12:30:33.066Z,9.70
2023-04-24T12:33:00.576Z,8.77
2023-04-24T12:35:30.026Z,8.70
2023-04-24T12:37:56.475Z,8.90
2023-04-24T12:40:23.196Z,9.47
2023-04-24T12:42:51.841Z,10.40
2023-04-24T12:45:20.020Z,10.47
2023-04-24T12:47:47.394Z,9.47
2023-04-24T12:50:15.767Z,9.47
2023-04-24T12:52:43.289Z,10.50
2023-04-24T12:55:10.498Z,7.97
2023-04-24T12:57:38.646Z,7.73
2023-04-24T13:00:07.491Z,6.33
2023-04-24T13:02:35.084Z,6.93
2023-04-24T13:05:02.496Z,7.00
2023-04-24T13:07:29.238Z,7.30
2023-04-24T13:09:56.800Z,6.57
2023-04-24T13:12:25.024Z,5.63
2023-04-24T13:14:51.992Z,5.80
2023-04-24T13:17:18.566Z,6.30
2023-04-24T13:19:46.141Z,5.63
2023-04-24T13:22:13.745Z,5.23
2023-04-24T13:24:43.258Z,5.57
2023-04-24T13:27:10.530Z,5.67
2023-04-24T13:29:38.188Z,4.90
2023-04-24T13:32:04.910Z,5.10
2023-04-24T13:34:31.549Z,4.83
2023-04-24T13:36:59.318Z,4.43
2023-04-24T13:39:26.783Z,4.67
2023-04-24T13:41:54.230Z,5.00
2023-04-24T13:44:21.925Z,5.40
2023-04-24T13:46:50.234Z,5.47
2023-04-24T13:49:17.137Z,4.70
2023-04-24T13:51:43.995Z,5.07
2023-04-24T13:54:10.742Z,4.97
2023-04-24T13:56:37.445Z,4.83
2023-04-24T13:59:04.114Z,4.30
2023-04-24T14:01:30.873Z,4.17
2023-04-24T14:03:58.029Z,4.03
2023-04-24T14:06:24.778Z,3.50
2023-04-24T14:08:51.561Z,3.20
2023-04-24T14:11:18.846Z,2.70
2023-04-24T14:13:46.376Z,3.03
2023-04-24T14:16:13.399Z,3.63
2023-04-24T14:18:39.932Z,4.13
2023-04-24T14:21:06.614Z,4.17
2023-04-24T14:23:33.601Z,3.67
2023-04-24T14:26:00.494Z,4.23
2023-04-24T14:28:27.586Z,3.80
2023-04-24T14:30:54.380Z,3.80
2023-04-24T14:33:21.379Z,4.13
2023-04-24T14:35:48.504Z,3.93
2023-04-24T14:38:16.332Z,4.13
2023-04-24T14:43:12.637Z,3.93
2023-04-24T14:45:39.382Z,3.97
2023-04-24T14:48:06.091Z,3.93
2023-04-24T14:50:32.709Z,4.13
2023-04-24T14:52:59.408Z,4.47
2023-04-24T14:55:27.168Z,4.53
2023-04-24T14:57:54.072Z,3.90
2023-04-24T15:00:21.469Z,3.40
2023-04-24T15:02:48.075Z,4.63
2023-04-24T15:05:15.036Z,4.90
2023-04-24T15:07:42.712Z,4.43
2023-04-24T15:10:09.805Z,4.43
2023-04-24T15:12:36.409Z,4.90
2023-04-24T15:15:03.020Z,4.50
2023-04-24T15:17:29.617Z,4.33
2023-04-24T15:19:56.165Z,5.03
2023-04-24T15:22:22.743Z,3.53
2023-04-24T15:24:49.214Z,4.43
2023-04-24T15:27:15.961Z,5.60
2023-04-24T15:29:42.894Z,5.30
2023-04-24T15:32:10.470Z,4.60
2023-04-24T15:34:37.972Z,4.63
2023-04-24T15:37:05.368Z,4.30
2023-04-24T15:39:32.224Z,5.03
2023-04-24T15:41:59.887Z,4.73
2023-04-24T15:44:26.957Z,4.43
2023-04-24T15:46:53.455Z,4.53
2023-04-24T15:49:20.507Z,5.30
2023-04-24T15:51:47.107Z,5.80
2023-04-24T15:54:13.612Z,5.20
2023-04-24T15:56:40.189Z,4.70
2023-04-24T15:59:06.816Z,4.40
2023-04-24T16:01:33.888Z,5.00
2023-04-24T16:04:00.622Z,4.07
2023-04-24T16:06:27.801Z,4.83
2023-04-24T16:08:55.468Z,4.00
2023-04-24T16:11:23.883Z,4.13
2023-04-24T16:13:51.086Z,3.73
2023-04-24T16:16:17.844Z,3.50
2023-04-24T16:18:44.382Z,3.90
2023-04-24T16:21:10.897Z,3.63
2023-04-24T16:23:37.346Z,3.40
2023-04-24T16:26:03.916Z,3.53
2023-04-24T16:28:33.431Z,3.10
2023-04-24T16:31:00.143Z,3.80
2023-04-24T16:33:26.703Z,3.50
2023-04-24T16:35:53.423Z,3.43
2023-04-24T16:38:19.965Z,3.00
2023-04-24T16:40:46.932Z,3.17
2023-04-24T16:43:13.436Z,3.83
2023-04-24T16:45:40.239Z,2.80
2023-04-24T16:48:07.777Z,3.57
2023-04-24T16:50:34.454Z,3.83
2023-04-24T16:53:01.257Z,3.10
2023-04-24T16:55:28.016Z,2.97
2023-04-24T16:57:54.521Z,2.63
2023-04-24T17:00:21.404Z,2.67
2023-04-24T17:02:50.346Z,2.33
2023-04-24T17:05:19.326Z,1.90
2023-04-24T17:07:45.932Z,2.47
2023-04-24T17:10:12.725Z,2.10
2023-04-24T17:12:39.226Z,2.70
2023-04-24T17:15:06.659Z,2.80
2023-04-24T17:17:33.232Z,3.00
2023-04-24T17:20:01.617Z,3.20
2023-04-24T17:22:32.429Z,2.67
2023-04-24T17:24:58.916Z,2.80
2023-04-24T17:27:25.595Z,2.83
2023-04-24T17:29:52.451Z,2.20
2023-04-24T17:32:19.228Z,2.47
2023-04-24T17:34:46.397Z,2.90
2023-04-24T17:37:12.918Z,3.30
2023-04-24T17:39:39.436Z,2.93
2023-04-24T17:42:06.221Z,3.07
2023-04-24T17:44:32.840Z,2.60
2023-04-24T17:46:59.444Z,3.67
2023-04-24T17:49:26.017Z,3.47
2023-04-24T17:51:52.823Z,2.87
2023-04-24T17:54:19.657Z,2.77
2023-04-24T17:56:46.439Z,2.77
2023-04-24T17:59:13.350Z,2.87
2023-04-24T18:01:40.093Z,2.20
2023-04-24T18:04:07.056Z,2.37
2023-04-24T18:06:34.074Z,2.50
2023-04-24T18:09:00.794Z,2.30
2023-04-24T18:11:28.987Z,2.80
2023-04-24T18:13:55.673Z,2.60
2023-04-24T18:16:24.429Z,2.80
2023-04-24T18:18:53.926Z,2.30
2023-04-24T18:21:20.657Z,2.87
2023-04-24T18:23:47.181Z,2.60
2023-04-24T18:26:16.919Z,2.33
2023-04-24T18:28:44.292Z,2.83
2023-04-24T18:31:11.063Z,3.03
2023-04-24T18:33:37.716Z,3.40
2023-04-24T18:36:04.601Z,3.27
2023-04-24T18:38:31.297Z,3.70
2023-04-24T18:40:57.829Z,4.73
2023-04-24T18:43:24.671Z,3.43
2023-04-24T18:45:51.160Z,2.93
2023-04-24T18:48:17.776Z,3.27
2023-04-24T18:50:44.296Z,3.17
2023-04-24T18:53:14.639Z,3.33
2023-04-24T18:55:41.194Z,4.03
2023-04-24T18:58:07.797Z,3.50
2023-04-24T19:00:34.411Z,3.13
2023-04-24T19:03:01.125Z,3.73
2023-04-24T19:05:27.934Z,3.43
2023-04-24T19:07:54.475Z,3.60
2023-04-24T19:10:20.998Z,3.77
2023-04-24T19:12:49.425Z,3.30
2023-04-24T19:15:16.130Z,4.33
2023-04-24T19:17:42.786Z,4.17
2023-04-24T19:20:09.948Z,4.67
2023-04-24T19:22:36.969Z,5.07
2023-04-24T19:25:05.280Z,4.33
2023-04-24T19:27:32.293Z,5.23
2023-04-24T19:29:58.857Z,4.67
2023-04-24T19:32:25.992Z,3.87
2023-04-24T19:34:52.595Z,4.40
2023-04-24T19:37:19.268Z,4.90
2023-04-24T19:39:45.941Z,4.50
2023-04-24T19:42:12.683Z,4.20
2023-04-24T19:44:39.230Z,4.80
2023-04-24T19:47:05.803Z,3.90
2023-04-24T19:49:32.362Z,4.43
2023-04-24T19:51:58.920Z,3.87
2023-04-24T19:54:26.195Z,4.20
2023-04-24T19:56:52.741Z,5.20
2023-04-24T19:59:19.232Z,5.10
2023-04-24T20:01:45.906Z,4.80
2023-04-24T20:04:12.747Z,6.20
2023-04-24T20:06:39.670Z,4.97
2023-04-24T20:09:06.173Z,6.03
2023-04-24T20:11:33.620Z,4.83
2023-04-24T20:14:01.691Z,5.50
2023-04-24T20:16:28.213Z,6.23
2023-04-24T20:18:54.793Z,5.60
2023-04-24T20:21:21.268Z,5.53
2023-04-24T20:23:48.121Z,5.10
2023-04-24T20:26:14.693Z,5.97
2023-04-24T20:28:41.229Z,5.90
2023-04-24T20:31:07.813Z,5.73
2023-04-24T20:33:36.835Z,4.90
2023-04-24T20:36:04.092Z,5.57
2023-04-24T20:38:31.083Z,6.87
2023-04-24T20:40:58.420Z,6.67
2023-04-24T20:43:28.906Z,5.57
2023-04-24T20:45:57.806Z,6.57
2023-04-24T20:48:24.910Z,6.47
2023-04-24T20:50:53.758Z,6.37
2023-04-24T20:53:21.084Z,6.47
2023-04-24T20:55:48.028Z,6.10
2023-04-24T20:58:15.993Z,6.90
2023-04-24T21:00:42.566Z,5.80
2023-04-24T21:03:09.214Z,6.43
2023-04-24T21:05:35.913Z,6.03
2023-04-24T21:08:02.390Z,6.57
2023-04-24T21:10:29.034Z,5.17
2023-04-24T21:12:55.641Z,5.60
2023-04-24T21:15:22.753Z,6.40
2023-04-24T21:17:49.451Z,6.77
2023-04-24T21:20:16.076Z,6.40
2023-04-24T21:22:42.847Z,6.17
2023-04-24T21:25:09.844Z,5.93
2023-04-24T21:27:37.486Z,6.90
2023-04-24T21:30:07.805Z,6.00
2023-04-24T21:32:34.369Z,6.33
2023-04-24T21:35:01.190Z,7.00
2023-04-24T21:37:27.804Z,6.63
2023-04-24T21:39:55.235Z,6.23
2023-04-24T21:42:22.127Z,6.03
2023-04-24T21:44:48.744Z,7.40
2023-04-24T21:47:15.405Z,7.30
2023-04-24T21:49:42.042Z,6.03
2023-04-24T21:52:08.638Z,6.93
2023-04-24T21:54:35.227Z,7.30
2023-04-24T21:57:02.435Z,5.60
2023-04-24T21:59:29.918Z,5.50
2023-04-24T22:01:56.591Z,6.50
2023-04-24T22:04:23.794Z,6.93
2023-04-24T22:06:53.293Z,7.20
2023-04-24T22:09:19.926Z,6.87
2023-04-24T22:11:46.490Z,6.67
2023-04-24T22:14:13.104Z,7.20
2023-04-24T22:16:41.584Z,6.53
2023-04-24T22:19:08.711Z,7.27
2023-04-24T22:21:35.675Z,7.20
2023-04-24T22:24:02.568Z,7.33
2023-04-24T22:26:29.151Z,7.40
2023-04-24T22:28:56.240Z,7.77
2023-04-24T22:31:23.392Z,6.67
2023-04-24T22:33:51.636Z,7.00
2023-04-24T22:36:18.623Z,6.33
2023-04-24T22:38:45.385Z,7.33
2023-04-24T22:41:12.132Z,7.13
2023-04-24T22:43:38.985Z,7.13
2023-04-24T22:46:05.668Z,8.27
2023-04-24T22:48:32.956Z,7.60
2023-04-24T22:50:59.735Z,7.67
2023-04-24T22:53:27.675Z,7.67
2023-04-24T22:55:55.748Z,7.20
2023-04-24T22:58:22.550Z,7.43
2023-04-24T23:00:49.149Z,7.80
2023-04-24T23:03:15.941Z,8.00
2023-04-24T23:05:42.651Z,8.10
2023-04-24T23:08:09.201Z,7.70
2023-04-24T23:10:35.907Z,6.70
2023-04-24T23:13:02.482Z,7.33
2023-04-24T23:15:29.969Z,6.97
2023-04-24T23:17:56.698Z,8.30
2023-04-24T23:20:23.574Z,7.50
2023-04-24T23:22:50.238Z,7.57
2023-04-24T23:25:17.114Z,7.20
2023-04-24T23:27:43.659Z,8.97
2023-04-24T23:30:10.843Z,8.00
2023-04-24T23:32:37.450Z,8.27
2023-04-24T23:35:04.805Z,7.90
2023-04-24T23:37:31.768Z,7.83
2023-04-24T23:39:58.746Z,8.17
2023-04-24T23:42:25.607Z,7.57
2023-04-24T23:44:52.466Z,8.17
2023-04-24T23:47:19.323Z,8.63
2023-04-24T23:49:45.766Z,7.50
2023-04-24T23:52:12.295Z,8.90
2023-04-24T23:54:38.936Z,6.83
2023-04-24T23:57:05.545Z,9.87
2023-04-24T23:59:32.076Z,7.57
